Impacts METAR Board
IDs:

KTPA - Tampa Intl Arpt, FL, US

Updated at: 0700 UTC 24 Jun 2018
Potential Impact None Slight Moderate High
Time 23/19Z 23/20Z 23/21Z 23/22Z 23/23Z 24/00Z 24/01Z 24/02Z 24/03Z 24/04Z 24/05Z 24/06Z 24/07Z
Temp91 91 91 90 90 88 86 85 84 83 83 82 81
Dewpt71 72 73 72 73 73 73 74 74 74 75 75 75
Altim30.01 30.00 29.99 29.99 29.99 30.01 30.00 30.00 30.03 30.05 30.04 30.03 30.01
VIS10 10 10 10 10 10 10 10 10 10 10 10 10
CIG-- -- -- 280 280 280 280 300 -- 300 250 -- --
CoverSCTSCTSCTBKNBKNBKNBKNOVCSCTBKNBKNSCTSCT
FltCatVFRVFRVFRVFRVFRVFRVFRVFRVFRVFRVFRVFRVFR
WX--------------------------
WDir2602602803202603203103003101201401500
WSpd11 10 10 10 6 6 7 5 4 6 4 3 0
WGst-- -- 18 16 -- -- -- -- -- -- -- -- --
Raw hourly METARs
KTPA 231853Z 26011KT 10SM SCT036TCU 33/22 A3001 RMK AO2 SLP161 CB DSNT NE-E TCU NE-E AND SE T03280217
KTPA 231953Z 26010KT 10SM SCT042 SCT230 33/22 A3000 RMK AO2 SLP158 CB DSNT NE-E T03280222
KTPA 232053Z 28010G18KT 10SM SCT042TCU SCT280 33/23 A2999 RMK AO2 SLP156 CB DSNT NE-SE TCU NE-E T03280228 56009
KTPA 232153Z 32010G16KT 10SM FEW035 BKN280 32/22 A2999 RMK AO2 SLP156 T03220222
KTPA 232253Z 26006KT 10SM FEW033 SCT150 BKN280 32/23 A2999 RMK AO2 SLP155 T03220228
KTPA 232353Z 32006KT 10SM FEW035 BKN280 31/23 A3001 RMK AO2 SLP161 T03110228 10333 20311 53005
KTPA 240053Z 31007KT 10SM FEW035 SCT150 BKN280 30/23 A3000 RMK AO2 SLP158 T03000228
KTPA 240153Z 30005KT 10SM FEW030 OVC300 29/23 A3000 RMK AO2 SLP159 T02940233
KTPA 240253Z 31004KT 10SM FEW035 SCT300 29/23 A3003 RMK AO2 SLP167 T02890233 53006
KTPA 240353Z 12006KT 10SM SCT026TCU BKN300 28/23 A3005 RMK AO2 SLP174 TCU SW-N T02830233
KTPA 240453Z 14004KT 10SM FEW028TCU BKN250 28/24 A3004 RMK AO2 SLP172 TCU W T02830239 403330278
KTPA 240553Z 15003KT 10SM FEW028TCU SCT250 28/24 A3003 RMK AO2 SLP167 TCU W T02780239 10311 20278 50000
KTPA 240653Z 00000KT 10SM FEW025TCU SCT250 27/24 A3001 RMK AO2 SLP163 TCU SW T02720239



Page loaded:  07:19 UTC  |   12:19 AM Pacific  |   01:19 AM Mountain  |   02:19 AM Central  |   03:19 AM Eastern

 

ADVISORIES

FORECASTS

FORECASTS

OBSERVATIONS

USER TOOLS

ABOUT US